sensor_id;sensor_type;location;lat;lon;timestamp;pressure;altitude;pressure_sealevel;temperature;humidity
60920;BME280;59039;52.108;19.942;2023-02-12T00:00:25;101971.63;;;2.50;82.23
60920;BME280;59039;52.108;19.942;2023-02-12T00:02:51;101973.45;;;2.49;81.79
60920;BME280;59039;52.108;19.942;2023-02-12T00:05:37;101976.89;;;2.48;81.96
60920;BME280;59039;52.108;19.942;2023-02-12T00:08:02;101970.54;;;2.46;81.77
60920;BME280;59039;52.108;19.942;2023-02-12T00:10:33;101969.13;;;2.46;82.00
60920;BME280;59039;52.108;19.942;2023-02-12T00:13:15;101981.42;;;2.46;82.37
60920;BME280;59039;52.108;19.942;2023-02-12T00:15:44;101985.35;;;2.47;81.82
60920;BME280;59039;52.108;19.942;2023-02-12T00:18:14;101992.91;;;2.46;81.40
60920;BME280;59039;52.108;19.942;2023-02-12T00:20:52;101997.79;;;2.45;81.17
60920;BME280;59039;52.108;19.942;2023-02-12T00:23:27;102002.21;;;2.42;80.38
60920;BME280;59039;52.108;19.942;2023-02-12T00:25:53;102006.19;;;2.41;81.79
60920;BME280;59039;52.108;19.942;2023-02-12T00:28:30;102014.95;;;2.41;81.83
60920;BME280;59039;52.108;19.942;2023-02-12T00:30:56;102024.59;;;2.41;82.07
60920;BME280;59039;52.108;19.942;2023-02-12T00:33:21;102025.83;;;2.42;81.66
60920;BME280;59039;52.108;19.942;2023-02-12T00:35:55;102027.98;;;2.42;82.05
60920;BME280;59039;52.108;19.942;2023-02-12T00:38:41;102033.52;;;2.42;81.77
60920;BME280;59039;52.108;19.942;2023-02-12T00:41:09;102040.91;;;2.41;81.25
60920;BME280;59039;52.108;19.942;2023-02-12T00:43:37;102051.45;;;2.41;81.65
60920;BME280;59039;52.108;19.942;2023-02-12T00:46:06;102051.19;;;2.38;81.65
60920;BME280;59039;52.108;19.942;2023-02-12T00:48:35;102065.20;;;2.37;82.04
60920;BME280;59039;52.108;19.942;2023-02-12T00:51:06;102074.86;;;2.37;82.35
60920;BME280;59039;52.108;19.942;2023-02-12T00:53:40;102072.16;;;2.37;81.80
60920;BME280;59039;52.108;19.942;2023-02-12T00:56:08;102075.73;;;2.33;80.88
60920;BME280;59039;52.108;19.942;2023-02-12T00:58:36;102086.04;;;2.30;80.77
60920;BME280;59039;52.108;19.942;2023-02-12T01:01:43;102092.06;;;2.27;80.94
60920;BME280;59039;52.108;19.942;2023-02-12T01:04:28;102093.71;;;2.21;80.38
60920;BME280;59039;52.108;19.942;2023-02-12T01:07:14;102095.81;;;2.18;81.35
60920;BME280;59039;52.108;19.942;2023-02-12T01:09:48;102105.27;;;2.14;80.27
60920;BME280;59039;52.108;19.942;2023-02-12T01:12:16;102108.98;;;2.10;80.86
60920;BME280;59039;52.108;19.942;2023-02-12T01:14:44;102113.17;;;2.08;80.94
60920;BME280;59039;52.108;19.942;2023-02-12T01:17:12;102112.80;;;2.04;80.88
60920;BME280;59039;52.108;19.942;2023-02-12T01:19:40;102118.52;;;2.00;81.03
60920;BME280;59039;52.108;19.942;2023-02-12T01:25:06;102116.20;;;1.94;81.85
60920;BME280;59039;52.108;19.942;2023-02-12T01:27:53;102113.94;;;1.93;82.25
60920;BME280;59039;52.108;19.942;2023-02-12T01:33:16;102130.60;;;1.92;81.95
60920;BME280;59039;52.108;19.942;2023-02-12T01:35:50;102128.79;;;1.93;82.44
60920;BME280;59039;52.108;19.942;2023-02-12T01:38:19;102131.61;;;1.89;81.97
60920;BME280;59039;52.108;19.942;2023-02-12T01:40:46;102136.09;;;1.88;82.18
60920;BME280;59039;52.108;19.942;2023-02-12T01:43:12;102141.13;;;1.87;82.78
60920;BME280;59039;52.108;19.942;2023-02-12T01:45:50;102143.62;;;1.88;82.64
60920;BME280;59039;52.108;19.942;2023-02-12T01:48:17;102141.56;;;1.85;82.51
60920;BME280;59039;52.108;19.942;2023-02-12T01:50:47;102150.54;;;1.84;82.14
60920;BME280;59039;52.108;19.942;2023-02-12T01:53:17;102153.65;;;1.82;82.42
60920;BME280;59039;52.108;19.942;2023-02-12T01:55:55;102151.96;;;1.79;82.18
60920;BME280;59039;52.108;19.942;2023-02-12T01:58:25;102155.77;;;1.78;82.11
60920;BME280;59039;52.108;19.942;2023-02-12T02:01:14;102161.17;;;1.77;82.54
60920;BME280;59039;52.108;19.942;2023-02-12T02:04:00;102167.80;;;1.76;82.28
60920;BME280;59039;52.108;19.942;2023-02-12T02:06:28;102175.29;;;1.77;82.50
60920;BME280;59039;52.108;19.942;2023-02-12T02:09:16;102169.38;;;1.77;82.61
60920;BME280;59039;52.108;19.942;2023-02-12T02:11:43;102169.41;;;1.77;82.41
60920;BME280;59039;52.108;19.942;2023-02-12T02:14:16;102167.34;;;1.75;81.16
60920;BME280;59039;52.108;19.942;2023-02-12T02:16:49;102169.98;;;1.70;81.19
60920;BME280;59039;52.108;19.942;2023-02-12T02:28:42;102186.39;;;1.66;80.96
60920;BME280;59039;52.108;19.942;2023-02-12T02:34:18;102210.58;;;1.70;81.37
60920;BME280;59039;52.108;19.942;2023-02-12T02:37:17;102218.24;;;1.70;80.58
60920;BME280;59039;52.108;19.942;2023-02-12T02:39:51;102222.35;;;1.71;80.53
60920;BME280;59039;52.108;19.942;2023-02-12T02:42:50;102226.59;;;1.72;80.96
60920;BME280;59039;52.108;19.942;2023-02-12T02:45:23;102233.88;;;1.73;80.75
60920;BME280;59039;52.108;19.942;2023-02-12T02:50:23;102248.69;;;1.73;80.05
60920;BME280;59039;52.108;19.942;2023-02-12T02:52:59;102251.56;;;1.73;80.10
60920;BME280;59039;52.108;19.942;2023-02-12T02:55:31;102257.33;;;1.72;79.65
60920;BME280;59039;52.108;19.942;2023-02-12T02:58:04;102258.57;;;1.73;80.00
60920;BME280;59039;52.108;19.942;2023-02-12T03:00:38;102263.70;;;1.74;80.34
60920;BME280;59039;52.108;19.942;2023-02-12T03:03:13;102265.81;;;1.74;79.95
60920;BME280;59039;52.108;19.942;2023-02-12T03:05:46;102264.80;;;1.73;80.56
60920;BME280;59039;52.108;19.942;2023-02-12T03:08:18;102279.93;;;1.75;80.35
60920;BME280;59039;52.108;19.942;2023-02-12T03:13:52;102291.10;;;1.77;80.41
60920;BME280;59039;52.108;19.942;2023-02-12T03:16:22;102294.41;;;1.80;80.12
60920;BME280;59039;52.108;19.942;2023-02-12T03:19:14;102293.63;;;1.81;80.50
60920;BME280;59039;52.108;19.942;2023-02-12T03:22:04;102296.27;;;1.82;80.39
60920;BME280;59039;52.108;19.942;2023-02-12T03:24:47;102295.88;;;1.83;80.60
60920;BME280;59039;52.108;19.942;2023-02-12T03:27:34;102301.96;;;1.83;80.75
60920;BME280;59039;52.108;19.942;2023-02-12T03:30:02;102298.08;;;1.82;79.69
60920;BME280;59039;52.108;19.942;2023-02-12T03:33:52;102298.48;;;1.81;80.08
60920;BME280;59039;52.108;19.942;2023-02-12T03:36:02;102299.54;;;1.82;79.66
60920;BME280;59039;52.108;19.942;2023-02-12T03:39:03;102308.73;;;1.79;79.31
60920;BME280;59039;52.108;19.942;2023-02-12T03:42:04;102309.62;;;1.79;80.16
60920;BME280;59039;52.108;19.942;2023-02-12T03:44:49;102319.42;;;1.80;79.61
60920;BME280;59039;52.108;19.942;2023-02-12T03:50:20;102323.77;;;1.78;80.16
60920;BME280;59039;52.108;19.942;2023-02-12T03:52:50;102332.69;;;1.79;79.17
60920;BME280;59039;52.108;19.942;2023-02-12T03:55:21;102332.52;;;1.79;79.61
60920;BME280;59039;52.108;19.942;2023-02-12T03:57:51;102342.45;;;1.80;80.08
60920;BME280;59039;52.108;19.942;2023-02-12T04:00:33;102349.89;;;1.83;80.45
60920;BME280;59039;52.108;19.942;2023-02-12T04:03:01;102353.60;;;1.84;80.10
60920;BME280;59039;52.108;19.942;2023-02-12T04:05:47;102357.50;;;1.85;80.33
60920;BME280;59039;52.108;19.942;2023-02-12T04:08:12;102361.87;;;1.88;80.79
60920;BME280;59039;52.108;19.942;2023-02-12T04:14:35;102379.77;;;1.93;80.27
60920;BME280;59039;52.108;19.942;2023-02-12T04:29:27;102413.11;;;1.95;79.97
60920;BME280;59039;52.108;19.942;2023-02-12T04:32:29;102414.77;;;1.94;80.02
60920;BME280;59039;52.108;19.942;2023-02-12T04:35:14;102420.18;;;1.92;79.93
60920;BME280;59039;52.108;19.942;2023-02-12T04:40:37;102425.36;;;1.93;80.05
60920;BME280;59039;52.108;19.942;2023-02-12T04:43:03;102429.27;;;1.93;80.35
60920;BME280;59039;52.108;19.942;2023-02-12T04:45:53;102426.17;;;1.95;80.64
60920;BME280;59039;52.108;19.942;2023-02-12T04:48:21;102430.47;;;1.95;80.64
60920;BME280;59039;52.108;19.942;2023-02-12T04:50:51;102428.16;;;1.94;80.57
60920;BME280;59039;52.108;19.942;2023-02-12T04:53:37;102422.63;;;1.94;80.09
60920;BME280;59039;52.108;19.942;2023-02-12T04:56:09;102422.64;;;1.94;80.39
60920;BME280;59039;52.108;19.942;2023-02-12T05:01:11;102427.69;;;1.92;80.21
60920;BME280;59039;52.108;19.942;2023-02-12T05:03:39;102432.14;;;1.93;80.53
60920;BME280;59039;52.108;19.942;2023-02-12T05:06:15;102433.73;;;1.94;80.84
60920;BME280;59039;52.108;19.942;2023-02-12T05:08:44;102440.20;;;1.93;80.33
60920;BME280;59039;52.108;19.942;2023-02-12T05:11:22;102439.70;;;1.92;80.71
60920;BME280;59039;52.108;19.942;2023-02-12T05:14:09;102436.81;;;1.92;80.89
60920;BME280;59039;52.108;19.942;2023-02-12T05:19:29;102435.17;;;1.93;80.45
60920;BME280;59039;52.108;19.942;2023-02-12T05:22:02;102433.39;;;1.93;80.36
60920;BME280;59039;52.108;19.942;2023-02-12T05:24:28;102435.30;;;1.94;80.61
60920;BME280;59039;52.108;19.942;2023-02-12T05:27:08;102440.29;;;1.95;80.64
60920;BME280;59039;52.108;19.942;2023-02-12T05:29:44;102442.44;;;1.95;80.13
60920;BME280;59039;52.108;19.942;2023-02-12T05:32:09;102448.89;;;1.95;80.05
60920;BME280;59039;52.108;19.942;2023-02-12T05:34:54;102444.98;;;1.94;79.75
60920;BME280;59039;52.108;19.942;2023-02-12T05:37:40;102450.38;;;1.93;79.93
60920;BME280;59039;52.108;19.942;2023-02-12T05:40:06;102455.30;;;1.90;79.28
60920;BME280;59039;52.108;19.942;2023-02-12T05:42:32;102462.15;;;1.88;80.16
60920;BME280;59039;52.108;19.942;2023-02-12T05:45:00;102465.20;;;1.88;80.31
60920;BME280;59039;52.108;19.942;2023-02-12T05:47:28;102465.96;;;1.86;79.69
60920;BME280;59039;52.108;19.942;2023-02-12T05:50:08;102468.89;;;1.84;79.60
60920;BME280;59039;52.108;19.942;2023-02-12T05:55:12;102478.45;;;1.81;79.81
60920;BME280;59039;52.108;19.942;2023-02-12T05:57:57;102485.20;;;1.82;79.99
60920;BME280;59039;52.108;19.942;2023-02-12T06:00:23;102488.91;;;1.84;80.41
60920;BME280;59039;52.108;19.942;2023-02-12T06:02:51;102497.44;;;1.86;80.05
60920;BME280;59039;52.108;19.942;2023-02-12T06:05:21;102503.31;;;1.86;80.54
60920;BME280;59039;52.108;19.942;2023-02-12T06:08:10;102501.88;;;1.86;80.41
60920;BME280;59039;52.108;19.942;2023-02-12T06:10:58;102510.55;;;1.84;79.04
60920;BME280;59039;52.108;19.942;2023-02-12T06:13:29;102515.77;;;1.82;79.57
60920;BME280;59039;52.108;19.942;2023-02-12T06:21:32;102535.58;;;1.78;79.35
60920;BME280;59039;52.108;19.942;2023-02-12T06:24:09;102541.07;;;1.79;79.82
60920;BME280;59039;52.108;19.942;2023-02-12T06:26:51;102549.98;;;1.80;79.98
60920;BME280;59039;52.108;19.942;2023-02-12T06:29:18;102559.10;;;1.80;79.68
60920;BME280;59039;52.108;19.942;2023-02-12T06:31:53;102555.86;;;1.81;80.54
60920;BME280;59039;52.108;19.942;2023-02-12T06:34:27;102554.95;;;1.81;80.06
60920;BME280;59039;52.108;19.942;2023-02-12T06:37:13;102559.27;;;1.80;80.17
60920;BME280;59039;52.108;19.942;2023-02-12T06:42:17;102556.20;;;1.82;80.45
60920;BME280;59039;52.108;19.942;2023-02-12T06:44:42;102563.70;;;1.81;79.67
60920;BME280;59039;52.108;19.942;2023-02-12T06:47:11;102564.26;;;1.81;80.22
60920;BME280;59039;52.108;19.942;2023-02-12T06:49:37;102567.80;;;1.82;80.48
60920;BME280;59039;52.108;19.942;2023-02-12T06:52:13;102566.90;;;1.82;79.38
60920;BME280;59039;52.108;19.942;2023-02-12T06:54:41;102575.81;;;1.83;79.32
60920;BME280;59039;52.108;19.942;2023-02-12T06:57:12;102576.15;;;1.83;79.39
60920;BME280;59039;52.108;19.942;2023-02-12T06:59:40;102582.02;;;1.85;79.52
60920;BME280;59039;52.108;19.942;2023-02-12T07:02:07;102585.70;;;1.87;79.56
60920;BME280;59039;52.108;19.942;2023-02-12T07:04:42;102589.59;;;1.89;79.41
60920;BME280;59039;52.108;19.942;2023-02-12T07:07:12;102588.85;;;1.90;79.15
60920;BME280;59039;52.108;19.942;2023-02-12T07:09:38;102593.77;;;1.92;79.61
60920;BME280;59039;52.108;19.942;2023-02-12T07:12:03;102594.98;;;1.94;80.30
60920;BME280;59039;52.108;19.942;2023-02-12T07:14:29;102597.23;;;1.96;80.35
60920;BME280;59039;52.108;19.942;2023-02-12T07:17:05;102600.73;;;1.99;79.50
60920;BME280;59039;52.108;19.942;2023-02-12T07:19:34;102600.92;;;1.98;78.87
60920;BME280;59039;52.108;19.942;2023-02-12T07:21:59;102604.64;;;1.99;79.16
60920;BME280;59039;52.108;19.942;2023-02-12T07:24:25;102611.92;;;2.01;79.24
60920;BME280;59039;52.108;19.942;2023-02-12T07:26:53;102613.00;;;2.01;78.36
60920;BME280;59039;52.108;19.942;2023-02-12T07:29:20;102618.02;;;2.00;77.76
60920;BME280;59039;52.108;19.942;2023-02-12T07:31:48;102623.00;;;2.01;77.87
60920;BME280;59039;52.108;19.942;2023-02-12T07:34:16;102623.14;;;2.03;77.53
60920;BME280;59039;52.108;19.942;2023-02-12T07:36:41;102624.67;;;2.05;77.57
60920;BME280;59039;52.108;19.942;2023-02-12T07:39:07;102629.63;;;2.07;78.08
60920;BME280;59039;52.108;19.942;2023-02-12T07:41:34;102638.67;;;2.10;78.85
60920;BME280;59039;52.108;19.942;2023-02-12T07:44:13;102638.98;;;2.12;77.57
60920;BME280;59039;52.108;19.942;2023-02-12T07:46:45;102636.48;;;2.12;76.85
60920;BME280;59039;52.108;19.942;2023-02-12T07:49:20;102642.91;;;2.11;77.27
60920;BME280;59039;52.108;19.942;2023-02-12T07:51:49;102644.15;;;2.12;77.41
60920;BME280;59039;52.108;19.942;2023-02-12T07:54:15;102647.69;;;2.13;78.20
60920;BME280;59039;52.108;19.942;2023-02-12T07:56:42;102649.25;;;2.15;77.08
60920;BME280;59039;52.108;19.942;2023-02-12T07:59:10;102640.95;;;2.18;77.24
60920;BME280;59039;52.108;19.942;2023-02-12T08:01:41;102634.25;;;2.20;77.16
60920;BME280;59039;52.108;19.942;2023-02-12T08:04:10;102635.27;;;2.22;76.89
60920;BME280;59039;52.108;19.942;2023-02-12T08:06:47;102639.67;;;2.24;77.34
60920;BME280;59039;52.108;19.942;2023-02-12T08:09:15;102636.58;;;2.26;77.49
60920;BME280;59039;52.108;19.942;2023-02-12T08:11:44;102642.80;;;2.27;76.94
60920;BME280;59039;52.108;19.942;2023-02-12T08:14:15;102638.48;;;2.27;74.79
60920;BME280;59039;52.108;19.942;2023-02-12T08:16:48;102639.73;;;2.28;78.50
60920;BME280;59039;52.108;19.942;2023-02-12T08:19:14;102638.27;;;2.29;78.60
60920;BME280;59039;52.108;19.942;2023-02-12T08:21:40;102632.89;;;2.30;76.88
60920;BME280;59039;52.108;19.942;2023-02-12T08:24:06;102636.35;;;2.33;77.57
60920;BME280;59039;52.108;19.942;2023-02-12T08:26:34;102647.38;;;2.35;77.01
60920;BME280;59039;52.108;19.942;2023-02-12T08:29:08;102646.80;;;2.37;76.45
60920;BME280;59039;52.108;19.942;2023-02-12T08:31:45;102646.54;;;2.40;75.82
60920;BME280;59039;52.108;19.942;2023-02-12T08:34:37;102646.63;;;2.42;76.48
60920;BME280;59039;52.108;19.942;2023-02-12T08:39:47;102647.49;;;2.49;75.98
60920;BME280;59039;52.108;19.942;2023-02-12T08:42:16;102647.58;;;2.52;76.65
60920;BME280;59039;52.108;19.942;2023-02-12T08:44:46;102655.05;;;2.53;75.43
60920;BME280;59039;52.108;19.942;2023-02-12T08:47:12;102654.97;;;2.56;77.00
60920;BME280;59039;52.108;19.942;2023-02-12T08:49:40;102658.38;;;2.56;76.28
60920;BME280;59039;52.108;19.942;2023-02-12T08:57:41;102664.48;;;2.61;74.93
60920;BME280;59039;52.108;19.942;2023-02-12T09:00:31;102664.73;;;2.64;76.70
60920;BME280;59039;52.108;19.942;2023-02-12T09:02:56;102662.19;;;2.65;74.77
60920;BME280;59039;52.108;19.942;2023-02-12T09:05:21;102663.02;;;2.67;75.84
60920;BME280;59039;52.108;19.942;2023-02-12T09:08:16;102667.41;;;2.69;76.56
60920;BME280;59039;52.108;19.942;2023-02-12T09:10:51;102666.80;;;2.72;74.31
60920;BME280;59039;52.108;19.942;2023-02-12T09:13:18;102667.46;;;2.74;77.97
60920;BME280;59039;52.108;19.942;2023-02-12T09:15:50;102674.16;;;2.72;76.30
60920;BME280;59039;52.108;19.942;2023-02-12T09:18:23;102679.36;;;2.71;74.26
60920;BME280;59039;52.108;19.942;2023-02-12T09:21:11;102683.46;;;2.72;74.35
60920;BME280;59039;52.108;19.942;2023-02-12T09:23:39;102683.23;;;2.73;73.45
60920;BME280;59039;52.108;19.942;2023-02-12T09:26:19;102684.55;;;2.72;73.67
60920;BME280;59039;52.108;19.942;2023-02-12T09:28:46;102686.69;;;2.72;73.89
60920;BME280;59039;52.108;19.942;2023-02-12T09:31:14;102695.10;;;2.72;73.45
60920;BME280;59039;52.108;19.942;2023-02-12T09:33:41;102698.30;;;2.73;73.74
60920;BME280;59039;52.108;19.942;2023-02-12T09:36:15;102700.05;;;2.74;74.05
60920;BME280;59039;52.108;19.942;2023-02-12T09:38:44;102701.77;;;2.76;73.72
60920;BME280;59039;52.108;19.942;2023-02-12T09:44:46;102700.81;;;2.78;72.96
60920;BME280;59039;52.108;19.942;2023-02-12T09:47:35;102701.67;;;2.79;72.81
60920;BME280;59039;52.108;19.942;2023-02-12T09:53:23;102704.23;;;2.78;73.29
60920;BME280;59039;52.108;19.942;2023-02-12T09:55:53;102705.98;;;2.78;74.26
60920;BME280;59039;52.108;19.942;2023-02-12T09:58:50;102700.39;;;2.80;74.39
60920;BME280;59039;52.108;19.942;2023-02-12T10:01:19;102693.89;;;2.82;74.35
60920;BME280;59039;52.108;19.942;2023-02-12T10:04:05;102692.05;;;2.83;74.11
60920;BME280;59039;52.108;19.942;2023-02-12T10:06:46;102696.81;;;2.85;74.06
60920;BME280;59039;52.108;19.942;2023-02-12T10:14:33;102706.20;;;2.89;73.43
60920;BME280;59039;52.108;19.942;2023-02-12T10:25:50;102701.47;;;2.86;72.74
60920;BME280;59039;52.108;19.942;2023-02-12T10:28:40;102700.45;;;2.84;73.15
60920;BME280;59039;52.108;19.942;2023-02-12T10:31:23;102702.42;;;2.83;72.42
60920;BME280;59039;52.108;19.942;2023-02-12T10:33:50;102704.91;;;2.84;72.92
60920;BME280;59039;52.108;19.942;2023-02-12T10:39:19;102709.61;;;2.88;74.39
60920;BME280;59039;52.108;19.942;2023-02-12T10:42:00;102710.93;;;2.92;75.30
60920;BME280;59039;52.108;19.942;2023-02-12T10:44:30;102706.40;;;2.94;74.24
60920;BME280;59039;52.108;19.942;2023-02-12T10:46:55;102705.72;;;2.93;72.44
60920;BME280;59039;52.108;19.942;2023-02-12T10:49:21;102703.98;;;2.91;72.15
60920;BME280;59039;52.108;19.942;2023-02-12T10:52:53;102704.54;;;2.90;73.17
60920;BME280;59039;52.108;19.942;2023-02-12T10:54:47;102698.37;;;2.93;76.58
60920;BME280;59039;52.108;19.942;2023-02-12T10:57:41;102693.48;;;2.95;75.75
60920;BME280;59039;52.108;19.942;2023-02-12T11:00:36;102694.46;;;2.98;73.97
60920;BME280;59039;52.108;19.942;2023-02-12T11:03:19;102687.96;;;2.99;73.37
60920;BME280;59039;52.108;19.942;2023-02-12T11:05:53;102690.55;;;3.02;75.07
60920;BME280;59039;52.108;19.942;2023-02-12T11:10:53;102692.26;;;3.05;74.64
60920;BME280;59039;52.108;19.942;2023-02-12T11:13:28;102687.20;;;3.06;75.39
60920;BME280;59039;52.108;19.942;2023-02-12T11:15:57;102679.27;;;3.08;74.78
60920;BME280;59039;52.108;19.942;2023-02-12T11:18:23;102671.13;;;3.10;74.72
60920;BME280;59039;52.108;19.942;2023-02-12T11:20:55;102672.90;;;3.10;73.95
60920;BME280;59039;52.108;19.942;2023-02-12T11:23:28;102671.23;;;3.12;74.92
60920;BME280;59039;52.108;19.942;2023-02-12T11:25:59;102675.62;;;3.14;74.68
60920;BME280;59039;52.108;19.942;2023-02-12T11:28:24;102672.52;;;3.17;75.57
60920;BME280;59039;52.108;19.942;2023-02-12T11:30:59;102672.59;;;3.19;76.22
60920;BME280;59039;52.108;19.942;2023-02-12T11:36:27;102673.69;;;3.24;74.36
60920;BME280;59039;52.108;19.942;2023-02-12T11:38:54;102673.48;;;3.25;73.08
60920;BME280;59039;52.108;19.942;2023-02-12T11:41:38;102675.48;;;3.24;73.93
60920;BME280;59039;52.108;19.942;2023-02-12T11:46:47;102674.91;;;3.25;73.42
60920;BME280;59039;52.108;19.942;2023-02-12T11:49:19;102676.88;;;3.25;72.97
60920;BME280;59039;52.108;19.942;2023-02-12T11:51:46;102678.63;;;3.26;73.53
60920;BME280;59039;52.108;19.942;2023-02-12T11:54:20;102677.11;;;3.29;74.21
60920;BME280;59039;52.108;19.942;2023-02-12T11:59:39;102674.66;;;3.32;74.62
60920;BME280;59039;52.108;19.942;2023-02-12T12:02:33;102668.41;;;3.36;74.61
60920;BME280;59039;52.108;19.942;2023-02-12T12:05:32;102667.44;;;3.39;74.92
60920;BME280;59039;52.108;19.942;2023-02-12T12:08:06;102662.75;;;3.40;73.21
60920;BME280;59039;52.108;19.942;2023-02-12T12:10:44;102657.83;;;3.42;74.79
60920;BME280;59039;52.108;19.942;2023-02-12T12:13:17;102662.04;;;3.45;74.74
60920;BME280;59039;52.108;19.942;2023-02-12T12:15:56;102663.71;;;3.48;75.62
60920;BME280;59039;52.108;19.942;2023-02-12T12:18:41;102661.16;;;3.49;73.57
60920;BME280;59039;52.108;19.942;2023-02-12T12:21:29;102658.29;;;3.50;73.21
60920;BME280;59039;52.108;19.942;2023-02-12T12:24:05;102656.48;;;3.50;73.08
60920;BME280;59039;52.108;19.942;2023-02-12T12:26:37;102655.52;;;3.52;73.29
60920;BME280;59039;52.108;19.942;2023-02-12T12:29:17;102657.33;;;3.52;71.89
60920;BME280;59039;52.108;19.942;2023-02-12T12:31:49;102653.55;;;3.52;73.08
60920;BME280;59039;52.108;19.942;2023-02-12T12:34:22;102653.72;;;3.52;72.38
60920;BME280;59039;52.108;19.942;2023-02-12T12:43:15;102650.00;;;3.56;73.14
60920;BME280;59039;52.108;19.942;2023-02-12T12:51:31;102633.18;;;3.60;73.21
60920;BME280;59039;52.108;19.942;2023-02-12T12:57:16;102637.44;;;3.62;72.25
60920;BME280;59039;52.108;19.942;2023-02-12T13:03:04;102637.31;;;3.65;74.41
60920;BME280;59039;52.108;19.942;2023-02-12T13:08:54;102642.25;;;3.67;72.36
60920;BME280;59039;52.108;19.942;2023-02-12T13:17:03;102647.11;;;3.67;73.58
60920;BME280;59039;52.108;19.942;2023-02-12T13:20:13;102650.38;;;3.66;71.90
60920;BME280;59039;52.108;19.942;2023-02-12T13:22:51;102654.17;;;3.65;72.54
60920;BME280;59039;52.108;19.942;2023-02-12T13:29:05;102647.56;;;3.64;72.76
60920;BME280;59039;52.108;19.942;2023-02-12T13:31:48;102641.96;;;3.65;73.38
60920;BME280;59039;52.108;19.942;2023-02-12T13:34:19;102641.58;;;3.66;73.44
60920;BME280;59039;52.108;19.942;2023-02-12T13:36:47;102636.96;;;3.69;76.04
60920;BME280;59039;52.108;19.942;2023-02-12T13:52:40;102624.59;;;3.64;73.55
60920;BME280;59039;52.108;19.942;2023-02-12T13:58:38;102624.95;;;3.65;74.04
60920;BME280;59039;52.108;19.942;2023-02-12T14:01:06;102627.50;;;3.64;73.00
60920;BME280;59039;52.108;19.942;2023-02-12T14:03:33;102629.52;;;3.62;72.77
60920;BME280;59039;52.108;19.942;2023-02-12T14:08:45;102630.66;;;3.61;73.17
60920;BME280;59039;52.108;19.942;2023-02-12T14:11:16;102624.94;;;3.60;73.57
60920;BME280;59039;52.108;19.942;2023-02-12T14:14:08;102623.48;;;3.61;74.54
60920;BME280;59039;52.108;19.942;2023-02-12T14:16:38;102625.10;;;3.61;73.67
60920;BME280;59039;52.108;19.942;2023-02-12T14:19:36;102626.19;;;3.60;74.36
60920;BME280;59039;52.108;19.942;2023-02-12T14:27:56;102620.81;;;3.60;75.69
60920;BME280;59039;52.108;19.942;2023-02-12T14:33:10;102620.64;;;3.55;74.48
60920;BME280;59039;52.108;19.942;2023-02-12T14:35:42;102621.06;;;3.53;74.44
60920;BME280;59039;52.108;19.942;2023-02-12T14:40:43;102625.61;;;3.51;75.74
60920;BME280;59039;52.108;19.942;2023-02-12T14:43:38;102627.04;;;3.51;75.91
60920;BME280;59039;52.108;19.942;2023-02-12T14:46:48;102631.54;;;3.51;76.36
60920;BME280;59039;52.108;19.942;2023-02-12T14:49:35;102631.20;;;3.50;77.09
60920;BME280;59039;52.108;19.942;2023-02-12T14:52:11;102634.27;;;3.49;76.43
60920;BME280;59039;52.108;19.942;2023-02-12T14:57:36;102650.66;;;3.42;75.65
60920;BME280;59039;52.108;19.942;2023-02-12T15:00:36;102656.34;;;3.39;75.49
60920;BME280;59039;52.108;19.942;2023-02-12T15:03:16;102650.12;;;3.38;76.38
60920;BME280;59039;52.108;19.942;2023-02-12T15:05:54;102644.42;;;3.36;76.03
60920;BME280;59039;52.108;19.942;2023-02-12T15:08:27;102641.63;;;3.34;75.28
60920;BME280;59039;52.108;19.942;2023-02-12T15:22:28;102625.55;;;3.22;76.29
60920;BME280;59039;52.108;19.942;2023-02-12T15:25:14;102624.36;;;3.21;76.33
60920;BME280;59039;52.108;19.942;2023-02-12T15:27:46;102623.93;;;3.18;76.33
60920;BME280;59039;52.108;19.942;2023-02-12T15:30:17;102628.27;;;3.17;76.88
60920;BME280;59039;52.108;19.942;2023-02-12T15:32:46;102626.64;;;3.17;76.65
60920;BME280;59039;52.108;19.942;2023-02-12T15:35:23;102625.58;;;3.17;77.33
60920;BME280;59039;52.108;19.942;2023-02-12T15:37:58;102628.61;;;3.17;77.05
60920;BME280;59039;52.108;19.942;2023-02-12T15:41:21;102627.66;;;3.19;76.98
60920;BME280;59039;52.108;19.942;2023-02-12T15:43:17;102624.80;;;3.19;77.26
60920;BME280;59039;52.108;19.942;2023-02-12T15:45:54;102620.86;;;3.19;77.85
60920;BME280;59039;52.108;19.942;2023-02-12T15:48:31;102619.17;;;3.16;77.68
60920;BME280;59039;52.108;19.942;2023-02-12T15:53:29;102623.63;;;3.11;77.61
60920;BME280;59039;52.108;19.942;2023-02-12T15:56:01;102622.80;;;3.09;77.70
60920;BME280;59039;52.108;19.942;2023-02-12T15:58:45;102621.95;;;3.07;77.32
60920;BME280;59039;52.108;19.942;2023-02-12T16:01:19;102626.49;;;3.05;77.58
60920;BME280;59039;52.108;19.942;2023-02-12T16:03:59;102626.23;;;3.03;77.53
60920;BME280;59039;52.108;19.942;2023-02-12T16:06:57;102621.48;;;3.00;77.97
60920;BME280;59039;52.108;19.942;2023-02-12T16:12:23;102617.02;;;2.94;77.54
60920;BME280;59039;52.108;19.942;2023-02-12T16:14:55;102612.07;;;2.92;78.01
60920;BME280;59039;52.108;19.942;2023-02-12T16:17:34;102615.71;;;2.90;77.83
60920;BME280;59039;52.108;19.942;2023-02-12T16:20:02;102620.80;;;2.88;78.50
60920;BME280;59039;52.108;19.942;2023-02-12T16:22:33;102624.65;;;2.86;78.79
60920;BME280;59039;52.108;19.942;2023-02-12T16:25:11;102624.07;;;2.82;79.52
60920;BME280;59039;52.108;19.942;2023-02-12T16:27:39;102630.85;;;2.77;79.38
60920;BME280;59039;52.108;19.942;2023-02-12T16:33:34;102634.97;;;2.71;79.07
60920;BME280;59039;52.108;19.942;2023-02-12T16:38:52;102643.21;;;2.66;79.65
60920;BME280;59039;52.108;19.942;2023-02-12T16:41:28;102646.67;;;2.63;79.75